sensor_id;sensor_type;location;lat;lon;timestamp;pressure;altitude;pressure_sealevel;temperature;humidity
59103;BME280;43999;51.660;5.616;2023-06-22T00:01:22;101681.06;;;20.28;100.00
59103;BME280;43999;51.660;5.616;2023-06-22T00:03:50;101678.19;;;20.19;100.00
59103;BME280;43999;51.660;5.616;2023-06-22T00:06:17;101677.00;;;20.12;100.00
59103;BME280;43999;51.660;5.616;2023-06-22T00:08:45;101683.81;;;20.05;100.00
59103;BME280;43999;51.660;5.616;2023-06-22T00:11:12;101683.19;;;20.01;100.00
59103;BME280;43999;51.660;5.616;2023-06-22T00:13:40;101683.31;;;20.00;100.00
59103;BME280;43999;51.660;5.616;2023-06-22T00:16:09;101669.06;;;20.01;100.00
59103;BME280;43999;51.660;5.616;2023-06-22T00:18:36;101667.84;;;19.94;100.00
59103;BME280;43999;51.660;5.616;2023-06-22T00:21:03;101678.25;;;19.85;100.00
59103;BME280;43999;51.660;5.616;2023-06-22T00:23:31;101682.50;;;19.77;100.00
59103;BME280;43999;51.660;5.616;2023-06-22T00:26:02;101682.97;;;19.70;100.00
59103;BME280;43999;51.660;5.616;2023-06-22T00:28:29;101683.22;;;19.67;100.00
59103;BME280;43999;51.660;5.616;2023-06-22T00:30:57;101676.31;;;19.65;100.00
59103;BME280;43999;51.660;5.616;2023-06-22T00:33:25;101684.53;;;19.62;100.00
59103;BME280;43999;51.660;5.616;2023-06-22T00:35:52;101693.25;;;19.64;100.00
59103;BME280;43999;51.660;5.616;2023-06-22T00:38:20;101682.84;;;19.61;100.00
59103;BME280;43999;51.660;5.616;2023-06-22T00:40:48;101679.34;;;19.60;100.00
59103;BME280;43999;51.660;5.616;2023-06-22T00:43:15;101678.38;;;19.61;100.00
59103;BME280;43999;51.660;5.616;2023-06-22T00:45:43;101683.94;;;19.58;100.00
59103;BME280;43999;51.660;5.616;2023-06-22T00:48:10;101675.34;;;19.55;100.00
59103;BME280;43999;51.660;5.616;2023-06-22T00:50:40;101674.53;;;19.54;100.00
59103;BME280;43999;51.660;5.616;2023-06-22T00:53:09;101682.50;;;19.54;100.00
59103;BME280;43999;51.660;5.616;2023-06-22T00:55:42;101675.00;;;19.48;100.00
59103;BME280;43999;51.660;5.616;2023-06-22T00:58:13;101677.66;;;19.48;100.00
59103;BME280;43999;51.660;5.616;2023-06-22T01:00:41;101677.66;;;19.48;100.00
59103;BME280;43999;51.660;5.616;2023-06-22T01:03:09;101678.72;;;19.45;100.00
59103;BME280;43999;51.660;5.616;2023-06-22T01:05:39;101668.22;;;19.44;100.00
59103;BME280;43999;51.660;5.616;2023-06-22T01:08:31;101674.66;;;19.41;100.00
59103;BME280;43999;51.660;5.616;2023-06-22T01:11:28;101669.44;;;19.40;100.00
59103;BME280;43999;51.660;5.616;2023-06-22T01:14:50;101661.72;;;19.37;100.00
59103;BME280;43999;51.660;5.616;2023-06-22T01:17:25;101662.78;;;19.34;100.00
59103;BME280;43999;51.660;5.616;2023-06-22T01:19:55;101661.09;;;19.33;100.00
59103;BME280;43999;51.660;5.616;2023-06-22T01:22:28;101653.34;;;19.30;100.00
59103;BME280;43999;51.660;5.616;2023-06-22T01:25:21;101664.97;;;19.29;100.00
59103;BME280;43999;51.660;5.616;2023-06-22T01:30:51;101661.81;;;19.24;100.00
59103;BME280;43999;51.660;5.616;2023-06-22T01:33:37;101661.91;;;19.22;100.00
59103;BME280;43999;51.660;5.616;2023-06-22T01:36:08;101662.28;;;19.17;100.00
59103;BME280;43999;51.660;5.616;2023-06-22T01:38:38;101659.03;;;19.14;100.00
59103;BME280;43999;51.660;5.616;2023-06-22T01:41:06;101667.00;;;19.14;100.00
59103;BME280;43999;51.660;5.616;2023-06-22T01:43:34;101671.59;;;19.12;100.00
59103;BME280;43999;51.660;5.616;2023-06-22T01:46:04;101670.25;;;19.06;100.00
59103;BME280;43999;51.660;5.616;2023-06-22T01:48:32;101673.72;;;19.07;100.00
59103;BME280;43999;51.660;5.616;2023-06-22T01:51:02;101656.97;;;19.06;100.00
59103;BME280;43999;51.660;5.616;2023-06-22T01:53:30;101653.94;;;18.99;100.00
59103;BME280;43999;51.660;5.616;2023-06-22T01:55:58;101654.06;;;18.98;100.00
59103;BME280;43999;51.660;5.616;2023-06-22T01:58:29;101650.28;;;19.01;100.00
59103;BME280;43999;51.660;5.616;2023-06-22T02:01:10;101643.19;;;19.01;100.00
59103;BME280;43999;51.660;5.616;2023-06-22T02:03:57;101642.56;;;18.97;100.00
59103;BME280;43999;51.660;5.616;2023-06-22T02:06:42;101650.66;;;18.96;100.00
59103;BME280;43999;51.660;5.616;2023-06-22T02:09:17;101647.50;;;18.91;100.00
59103;BME280;43999;51.660;5.616;2023-06-22T02:11:51;101638.19;;;18.85;100.00
59103;BME280;43999;51.660;5.616;2023-06-22T02:14:23;101643.81;;;18.80;100.00
59103;BME280;43999;51.660;5.616;2023-06-22T02:16:51;101639.84;;;18.75;100.00
59103;BME280;43999;51.660;5.616;2023-06-22T02:19:23;101643.69;;;18.71;100.00
59103;BME280;43999;51.660;5.616;2023-06-22T02:21:52;101637.44;;;18.72;100.00
59103;BME280;43999;51.660;5.616;2023-06-22T02:24:20;101649.09;;;18.69;100.00
59103;BME280;43999;51.660;5.616;2023-06-22T02:26:50;101643.19;;;18.66;100.00
59103;BME280;43999;51.660;5.616;2023-06-22T02:29:17;101629.75;;;18.56;100.00
59103;BME280;43999;51.660;5.616;2023-06-22T02:31:46;101640.88;;;18.61;100.00
59103;BME280;43999;51.660;5.616;2023-06-22T02:34:14;101634.44;;;18.52;100.00
59103;BME280;43999;51.660;5.616;2023-06-22T02:36:46;101635.28;;;18.53;100.00
59103;BME280;43999;51.660;5.616;2023-06-22T02:39:23;101639.03;;;18.50;100.00
59103;BME280;43999;51.660;5.616;2023-06-22T02:41:53;101629.72;;;18.44;100.00
59103;BME280;43999;51.660;5.616;2023-06-22T02:44:22;101626.94;;;18.46;100.00
59103;BME280;43999;51.660;5.616;2023-06-22T02:46:50;101629.94;;;18.41;100.00
59103;BME280;43999;51.660;5.616;2023-06-22T02:49:18;101619.44;;;18.40;100.00
59103;BME280;43999;51.660;5.616;2023-06-22T02:51:48;101630.81;;;18.42;100.00
59103;BME280;43999;51.660;5.616;2023-06-22T02:54:19;101620.44;;;18.39;100.00
59103;BME280;43999;51.660;5.616;2023-06-22T02:56:49;101617.38;;;18.32;100.00
59103;BME280;43999;51.660;5.616;2023-06-22T02:59:18;101621.94;;;18.30;100.00
59103;BME280;43999;51.660;5.616;2023-06-22T03:01:52;101616.75;;;18.28;100.00
59103;BME280;43999;51.660;5.616;2023-06-22T03:04:29;101618.81;;;18.25;100.00
59103;BME280;43999;51.660;5.616;2023-06-22T03:06:58;101608.41;;;18.22;100.00
59103;BME280;43999;51.660;5.616;2023-06-22T03:09:30;101603.22;;;18.20;100.00
59103;BME280;43999;51.660;5.616;2023-06-22T03:11:58;101604.41;;;18.16;100.00
59103;BME280;43999;51.660;5.616;2023-06-22T03:14:32;101603.56;;;18.16;100.00
59103;BME280;43999;51.660;5.616;2023-06-22T03:16:59;101594.97;;;18.12;100.00
59103;BME280;43999;51.660;5.616;2023-06-22T03:19:30;101595.94;;;18.11;100.00
59103;BME280;43999;51.660;5.616;2023-06-22T03:22:00;101598.72;;;18.09;100.00
59103;BME280;43999;51.660;5.616;2023-06-22T03:24:27;101599.44;;;18.12;100.00
59103;BME280;43999;51.660;5.616;2023-06-22T03:26:58;101588.22;;;18.08;100.00
59103;BME280;43999;51.660;5.616;2023-06-22T03:29:25;101601.47;;;18.08;100.00
59103;BME280;43999;51.660;5.616;2023-06-22T03:31:56;101593.75;;;18.05;100.00
59103;BME280;43999;51.660;5.616;2023-06-22T03:34:23;101597.34;;;18.04;100.00
59103;BME280;43999;51.660;5.616;2023-06-22T03:36:52;101593.00;;;18.03;100.00
59103;BME280;43999;51.660;5.616;2023-06-22T03:39:19;101596.63;;;18.02;100.00
59103;BME280;43999;51.660;5.616;2023-06-22T03:41:47;101598.41;;;18.01;100.00
59103;BME280;43999;51.660;5.616;2023-06-22T03:44:15;101595.16;;;17.98;100.00
59103;BME280;43999;51.660;5.616;2023-06-22T03:46:42;101593.56;;;17.95;100.00
59103;BME280;43999;51.660;5.616;2023-06-22T03:49:11;101593.66;;;17.94;100.00
59103;BME280;43999;51.660;5.616;2023-06-22T03:51:38;101583.28;;;17.90;100.00
59103;BME280;43999;51.660;5.616;2023-06-22T03:54:06;101588.59;;;17.90;100.00
59103;BME280;43999;51.660;5.616;2023-06-22T03:56:33;101585.00;;;17.91;100.00
59103;BME280;43999;51.660;5.616;2023-06-22T03:59:00;101586.91;;;17.89;100.00
59103;BME280;43999;51.660;5.616;2023-06-22T04:01:27;101590.53;;;17.88;100.00
59103;BME280;43999;51.660;5.616;2023-06-22T04:03:55;101595.06;;;17.86;100.00
59103;BME280;43999;51.660;5.616;2023-06-22T04:06:22;101591.44;;;17.87;100.00
59103;BME280;43999;51.660;5.616;2023-06-22T04:08:49;101577.25;;;17.88;100.00
59103;BME280;43999;51.660;5.616;2023-06-22T04:11:18;101579.91;;;17.88;100.00
59103;BME280;43999;51.660;5.616;2023-06-22T04:13:45;101576.31;;;17.89;100.00
59103;BME280;43999;51.660;5.616;2023-06-22T04:16:13;101579.69;;;17.91;100.00
59103;BME280;43999;51.660;5.616;2023-06-22T04:18:41;101581.50;;;17.91;100.00
59103;BME280;43999;51.660;5.616;2023-06-22T04:21:10;101571.63;;;17.93;100.00
59103;BME280;43999;51.660;5.616;2023-06-22T04:23:37;101575.00;;;17.95;100.00
59103;BME280;43999;51.660;5.616;2023-06-22T04:26:05;101571.50;;;17.95;100.00
59103;BME280;43999;51.660;5.616;2023-06-22T04:28:32;101566.22;;;17.95;100.00
59103;BME280;43999;51.660;5.616;2023-06-22T04:31:02;101566.47;;;18.03;100.00
59103;BME280;43999;51.660;5.616;2023-06-22T04:33:31;101567.56;;;18.00;100.00
59103;BME280;43999;51.660;5.616;2023-06-22T04:35:59;101570.72;;;18.05;100.00
59103;BME280;43999;51.660;5.616;2023-06-22T04:38:32;101567.34;;;18.03;100.00
59103;BME280;43999;51.660;5.616;2023-06-22T04:41:02;101579.28;;;18.09;100.00
59103;BME280;43999;51.660;5.616;2023-06-22T04:43:30;101568.78;;;18.07;100.00
59103;BME280;43999;51.660;5.616;2023-06-22T04:45:58;101578.81;;;18.15;100.00
59103;BME280;43999;51.660;5.616;2023-06-22T04:48:30;101582.84;;;18.21;100.00
59103;BME280;43999;51.660;5.616;2023-06-22T04:51:02;101573.81;;;18.23;100.00
59103;BME280;43999;51.660;5.616;2023-06-22T04:53:32;101578.44;;;18.33;100.00
59103;BME280;43999;51.660;5.616;2023-06-22T04:55:59;101583.41;;;18.37;100.00
59103;BME280;43999;51.660;5.616;2023-06-22T04:58:26;101589.19;;;18.42;100.00
59103;BME280;43999;51.660;5.616;2023-06-22T05:00:59;101582.66;;;18.46;100.00
59103;BME280;43999;51.660;5.616;2023-06-22T05:03:26;101586.78;;;18.51;100.00
59103;BME280;43999;51.660;5.616;2023-06-22T05:05:54;101583.06;;;18.53;100.00
59103;BME280;43999;51.660;5.616;2023-06-22T05:08:22;101581.03;;;18.57;100.00
59103;BME280;43999;51.660;5.616;2023-06-22T05:10:53;101584.28;;;18.60;100.00
59103;BME280;43999;51.660;5.616;2023-06-22T05:13:32;101582.88;;;18.68;100.00
59103;BME280;43999;51.660;5.616;2023-06-22T05:15:59;101580.69;;;18.73;100.00
59103;BME280;43999;51.660;5.616;2023-06-22T05:18:30;101580.44;;;18.76;100.00
59103;BME280;43999;51.660;5.616;2023-06-22T05:21:06;101585.84;;;18.87;100.00
59103;BME280;43999;51.660;5.616;2023-06-22T05:23:36;101583.19;;;18.87;100.00
59103;BME280;43999;51.660;5.616;2023-06-22T05:26:03;101593.44;;;18.92;100.00
59103;BME280;43999;51.660;5.616;2023-06-22T05:28:30;101588.03;;;19.05;100.00
59103;BME280;43999;51.660;5.616;2023-06-22T05:30:57;101582.81;;;19.14;100.00
59103;BME280;43999;51.660;5.616;2023-06-22T05:33:25;101580.44;;;19.23;100.00
59103;BME280;43999;51.660;5.616;2023-06-22T05:35:52;101591.38;;;19.41;100.00
59103;BME280;43999;51.660;5.616;2023-06-22T05:38:19;101593.19;;;19.51;100.00
59103;BME280;43999;51.660;5.616;2023-06-22T05:40:47;101592.47;;;19.61;100.00
59103;BME280;43999;51.660;5.616;2023-06-22T05:43:15;101580.94;;;19.71;100.00
59103;BME280;43999;51.660;5.616;2023-06-22T05:45:42;101580.50;;;19.78;100.00
59103;BME280;43999;51.660;5.616;2023-06-22T05:48:09;101587.97;;;19.84;100.00
59103;BME280;43999;51.660;5.616;2023-06-22T05:50:37;101580.25;;;19.81;100.00
59103;BME280;43999;51.660;5.616;2023-06-22T05:53:04;101574.94;;;19.81;100.00
59103;BME280;43999;51.660;5.616;2023-06-22T05:55:34;101571.88;;;19.85;100.00
59103;BME280;43999;51.660;5.616;2023-06-22T05:58:01;101571.63;;;19.88;100.00
59103;BME280;43999;51.660;5.616;2023-06-22T06:00:30;101575.50;;;19.96;100.00
59103;BME280;43999;51.660;5.616;2023-06-22T06:02:59;101570.63;;;20.01;100.00
59103;BME280;43999;51.660;5.616;2023-06-22T06:05:32;101581.34;;;20.11;100.00
59103;BME280;43999;51.660;5.616;2023-06-22T06:08:03;101582.66;;;20.16;100.00
59103;BME280;43999;51.660;5.616;2023-06-22T06:10:33;101576.00;;;20.22;100.00
59103;BME280;43999;51.660;5.616;2023-06-22T06:13:00;101581.78;;;20.27;100.00
59103;BME280;43999;51.660;5.616;2023-06-22T06:15:34;101578.59;;;20.33;100.00
59103;BME280;43999;51.660;5.616;2023-06-22T06:18:02;101564.78;;;20.39;100.00
59103;BME280;43999;51.660;5.616;2023-06-22T06:20:32;101565.44;;;20.53;100.00
59103;BME280;43999;51.660;5.616;2023-06-22T06:23:00;101559.13;;;20.54;100.00
59103;BME280;43999;51.660;5.616;2023-06-22T06:25:28;101562.81;;;20.63;100.00
59103;BME280;43999;51.660;5.616;2023-06-22T06:27:55;101560.78;;;20.66;100.00
59103;BME280;43999;51.660;5.616;2023-06-22T06:30:23;101566.44;;;20.73;100.00
59103;BME280;43999;51.660;5.616;2023-06-22T06:32:51;101571.09;;;20.81;100.00
59103;BME280;43999;51.660;5.616;2023-06-22T06:35:18;101560.06;;;20.85;100.00
59103;BME280;43999;51.660;5.616;2023-06-22T06:37:49;101569.06;;;20.94;100.00
59103;BME280;43999;51.660;5.616;2023-06-22T06:40:18;101569.13;;;21.04;100.00
59103;BME280;43999;51.660;5.616;2023-06-22T06:42:48;101570.94;;;21.13;100.00
59103;BME280;43999;51.660;5.616;2023-06-22T06:45:19;101567.06;;;21.17;100.00
59103;BME280;43999;51.660;5.616;2023-06-22T06:47:52;101568.06;;;21.26;100.00
59103;BME280;43999;51.660;5.616;2023-06-22T06:50:20;101558.41;;;21.35;100.00
59103;BME280;43999;51.660;5.616;2023-06-22T06:52:48;101561.38;;;21.41;100.00
59103;BME280;43999;51.660;5.616;2023-06-22T06:55:17;101566.91;;;21.49;100.00
59103;BME280;43999;51.660;5.616;2023-06-22T06:57:46;101561.88;;;21.56;100.00
59103;BME280;43999;51.660;5.616;2023-06-22T07:00:16;101553.19;;;21.64;100.00
59103;BME280;43999;51.660;5.616;2023-06-22T07:02:44;101561.78;;;21.77;100.00
59103;BME280;43999;51.660;5.616;2023-06-22T07:05:15;101555.19;;;21.81;100.00
59103;BME280;43999;51.660;5.616;2023-06-22T07:07:43;101550.13;;;21.88;100.00
59103;BME280;43999;51.660;5.616;2023-06-22T07:10:11;101554.63;;;21.88;100.00
59103;BME280;43999;51.660;5.616;2023-06-22T07:12:38;101554.50;;;21.89;100.00
59103;BME280;43999;51.660;5.616;2023-06-22T07:15:09;101553.22;;;21.93;100.00
59103;BME280;43999;51.660;5.616;2023-06-22T07:17:37;101546.63;;;21.97;100.00
59103;BME280;43999;51.660;5.616;2023-06-22T07:20:08;101548.88;;;22.02;100.00
59103;BME280;43999;51.660;5.616;2023-06-22T07:22:39;101546.31;;;22.10;100.00
59103;BME280;43999;51.660;5.616;2023-06-22T07:25:08;101538.91;;;22.14;100.00
59103;BME280;43999;51.660;5.616;2023-06-22T07:27:39;101544.50;;;22.20;100.00
59103;BME280;43999;51.660;5.616;2023-06-22T07:30:12;101540.72;;;22.23;100.00
59103;BME280;43999;51.660;5.616;2023-06-22T07:32:40;101538.88;;;22.24;100.00
59103;BME280;43999;51.660;5.616;2023-06-22T07:35:08;101534.66;;;22.21;100.00
59103;BME280;43999;51.660;5.616;2023-06-22T07:37:35;101535.66;;;22.20;100.00
59103;BME280;43999;51.660;5.616;2023-06-22T07:40:03;101539.03;;;22.22;100.00
59103;BME280;43999;51.660;5.616;2023-06-22T07:42:33;101530.31;;;22.20;100.00
59103;BME280;43999;51.660;5.616;2023-06-22T07:45:02;101532.00;;;22.21;100.00
59103;BME280;43999;51.660;5.616;2023-06-22T07:47:31;101533.00;;;22.20;100.00
59103;BME280;43999;51.660;5.616;2023-06-22T07:50:03;101529.47;;;22.29;100.00
59103;BME280;43999;51.660;5.616;2023-06-22T07:52:32;101536.09;;;22.35;100.00
59103;BME280;43999;51.660;5.616;2023-06-22T07:54:59;101528.78;;;22.37;100.00
59103;BME280;43999;51.660;5.616;2023-06-22T07:57:26;101525.81;;;22.40;100.00
59103;BME280;43999;51.660;5.616;2023-06-22T08:00:03;101519.47;;;22.51;100.00
59103;BME280;43999;51.660;5.616;2023-06-22T08:02:46;101508.63;;;22.62;100.00
59103;BME280;43999;51.660;5.616;2023-06-22T08:05:15;101505.06;;;22.71;100.00
59103;BME280;43999;51.660;5.616;2023-06-22T08:08:00;101510.09;;;22.84;100.00
59103;BME280;43999;51.660;5.616;2023-06-22T08:10:27;101500.59;;;23.00;100.00
59103;BME280;43999;51.660;5.616;2023-06-22T08:12:55;101496.34;;;23.07;100.00
59103;BME280;43999;51.660;5.616;2023-06-22T08:15:22;101487.47;;;23.16;100.00
59103;BME280;43999;51.660;5.616;2023-06-22T08:17:49;101479.41;;;23.44;100.00
59103;BME280;43999;51.660;5.616;2023-06-22T08:20:19;101478.25;;;23.65;100.00
59103;BME280;43999;51.660;5.616;2023-06-22T08:22:46;101465.63;;;23.75;97.73
59103;BME280;43999;51.660;5.616;2023-06-22T08:25:13;101467.16;;;23.77;96.56
59103;BME280;43999;51.660;5.616;2023-06-22T08:27:45;101464.72;;;23.84;93.04
59103;BME280;43999;51.660;5.616;2023-06-22T08:30:15;101469.78;;;23.87;94.71
59103;BME280;43999;51.660;5.616;2023-06-22T08:32:43;101452.88;;;23.87;94.85
59103;BME280;43999;51.660;5.616;2023-06-22T08:35:11;101457.94;;;23.90;93.59
59103;BME280;43999;51.660;5.616;2023-06-22T08:37:38;101454.94;;;23.93;90.22
59103;BME280;43999;51.660;5.616;2023-06-22T08:40:09;101457.63;;;23.93;88.42
59103;BME280;43999;51.660;5.616;2023-06-22T08:42:40;101454.72;;;23.86;91.33
59103;BME280;43999;51.660;5.616;2023-06-22T08:45:09;101452.88;;;23.87;90.98
59103;BME280;43999;51.660;5.616;2023-06-22T08:47:37;101461.97;;;23.94;88.39
59103;BME280;43999;51.660;5.616;2023-06-22T08:50:06;101459.47;;;23.92;89.39
59103;BME280;43999;51.660;5.616;2023-06-22T08:52:36;101460.13;;;23.94;89.15
59103;BME280;43999;51.660;5.616;2023-06-22T08:55:05;101452.31;;;24.01;88.28
59103;BME280;43999;51.660;5.616;2023-06-22T08:57:33;101455.69;;;24.03;88.16
59103;BME280;43999;51.660;5.616;2023-06-22T09:00:00;101458.38;;;24.03;89.77
59103;BME280;43999;51.660;5.616;2023-06-22T09:02:28;101446.34;;;24.07;88.28
59103;BME280;43999;51.660;5.616;2023-06-22T09:04:59;101447.19;;;24.08;86.97
59103;BME280;43999;51.660;5.616;2023-06-22T09:07:27;101450.19;;;24.05;86.05
59103;BME280;43999;51.660;5.616;2023-06-22T09:09:56;101450.50;;;24.02;86.50
59103;BME280;43999;51.660;5.616;2023-06-22T09:12:23;101438.94;;;24.01;87.42
59103;BME280;43999;51.660;5.616;2023-06-22T09:14:54;101436.25;;;24.01;87.39
59103;BME280;43999;51.660;5.616;2023-06-22T09:17:22;101440.25;;;23.97;86.95
59103;BME280;43999;51.660;5.616;2023-06-22T09:19:50;101439.56;;;23.95;87.04
59103;BME280;43999;51.660;5.616;2023-06-22T09:22:17;101444.56;;;23.90;87.84
59103;BME280;43999;51.660;5.616;2023-06-22T09:24:45;101448.38;;;23.87;87.69
59103;BME280;43999;51.660;5.616;2023-06-22T09:27:12;101445.84;;;23.86;85.26
59103;BME280;43999;51.660;5.616;2023-06-22T09:29:39;101447.81;;;23.84;85.29
59103;BME280;43999;51.660;5.616;2023-06-22T09:32:07;101441.22;;;23.78;86.04
59103;BME280;43999;51.660;5.616;2023-06-22T09:34:35;101436.19;;;23.75;86.89
59103;BME280;43999;51.660;5.616;2023-06-22T09:37:02;101441.53;;;23.75;87.52
59103;BME280;43999;51.660;5.616;2023-06-22T09:39:29;101427.34;;;23.74;88.59
59103;BME280;43999;51.660;5.616;2023-06-22T09:41:59;101433.50;;;23.75;88.67
59103;BME280;43999;51.660;5.616;2023-06-22T09:44:27;101427.34;;;23.74;89.00
59103;BME280;43999;51.660;5.616;2023-06-22T09:46:54;101425.97;;;23.70;89.11
59103;BME280;43999;51.660;5.616;2023-06-22T09:49:22;101426.50;;;23.74;89.43
59103;BME280;43999;51.660;5.616;2023-06-22T09:52:08;101434.84;;;23.71;89.39
59103;BME280;43999;51.660;5.616;2023-06-22T09:54:35;101433.63;;;23.65;90.63
59103;BME280;43999;51.660;5.616;2023-06-22T09:57:02;101432.94;;;23.63;90.53
59103;BME280;43999;51.660;5.616;2023-06-22T09:59:30;101435.09;;;23.59;91.07
59103;BME280;43999;51.660;5.616;2023-06-22T10:01:57;101422.47;;;23.52;90.98
59103;BME280;43999;51.660;5.616;2023-06-22T10:04:25;101427.69;;;23.53;92.09
59103;BME280;43999;51.660;5.616;2023-06-22T10:06:53;101419.09;;;23.50;91.83
59103;BME280;43999;51.660;5.616;2023-06-22T10:09:22;101415.44;;;23.51;91.34
59103;BME280;43999;51.660;5.616;2023-06-22T10:11:50;101417.75;;;23.45;91.04
59103;BME280;43999;51.660;5.616;2023-06-22T10:14:18;101428.44;;;23.45;90.96
59103;BME280;43999;51.660;5.616;2023-06-22T10:16:45;101429.28;;;23.46;91.19
59103;BME280;43999;51.660;5.616;2023-06-22T10:19:12;101421.25;;;23.46;91.55
59103;BME280;43999;51.660;5.616;2023-06-22T10:21:41;101417.59;;;23.47;91.83
59103;BME280;43999;51.660;5.616;2023-06-22T10:24:08;101411.69;;;23.43;93.05
59103;BME280;43999;51.660;5.616;2023-06-22T10:26:36;101417.03;;;23.43;94.22
59103;BME280;43999;51.660;5.616;2023-06-22T10:29:03;101408.19;;;23.43;94.56
59103;BME280;43999;51.660;5.616;2023-06-22T10:31:34;101415.22;;;23.44;94.92
59103;BME280;43999;51.660;5.616;2023-06-22T10:34:01;101405.50;;;23.43;95.86
59103;BME280;43999;51.660;5.616;2023-06-22T10:36:29;101402.84;;;23.43;96.30
59103;BME280;43999;51.660;5.616;2023-06-22T10:38:56;101403.13;;;23.40;96.94
59103;BME280;43999;51.660;5.616;2023-06-22T10:41:26;101397.94;;;23.38;96.40
59103;BME280;43999;51.660;5.616;2023-06-22T10:43:56;101397.28;;;23.36;95.80
59103;BME280;43999;51.660;5.616;2023-06-22T10:46:26;101397.41;;;23.35;95.07
59103;BME280;43999;51.660;5.616;2023-06-22T10:48:54;101410.38;;;23.30;94.49
59103;BME280;43999;51.660;5.616;2023-06-22T10:51:24;101419.28;;;23.30;94.07
59103;BME280;43999;51.660;5.616;2023-06-22T10:53:52;101406.50;;;23.24;94.21
59103;BME280;43999;51.660;5.616;2023-06-22T10:56:20;101413.81;;;23.22;94.92
59103;BME280;43999;51.660;5.616;2023-06-22T10:58:47;101408.63;;;23.20;94.91
59103;BME280;43999;51.660;5.616;2023-06-22T11:01:14;101417.66;;;23.19;96.35
59103;BME280;43999;51.660;5.616;2023-06-22T11:04:00;101418.25;;;23.13;97.89
59103;BME280;43999;51.660;5.616;2023-06-22T11:06:28;101426.00;;;23.06;99.54
59103;BME280;43999;51.660;5.616;2023-06-22T11:08:56;101422.25;;;22.99;100.00
59103;BME280;43999;51.660;5.616;2023-06-22T11:11:43;101427.75;;;22.98;100.00
59103;BME280;43999;51.660;5.616;2023-06-22T11:14:10;101433.25;;;22.96;100.00
59103;BME280;43999;51.660;5.616;2023-06-22T11:16:39;101436.75;;;22.97;100.00
59103;BME280;43999;51.660;5.616;2023-06-22T11:19:06;101447.88;;;22.92;100.00
59103;BME280;43999;51.660;5.616;2023-06-22T11:21:34;101442.84;;;22.89;100.00
59103;BME280;43999;51.660;5.616;2023-06-22T11:24:01;101449.59;;;22.83;100.00
59103;BME280;43999;51.660;5.616;2023-06-22T11:26:29;101447.66;;;22.76;100.00
59103;BME280;43999;51.660;5.616;2023-06-22T11:28:58;101452.09;;;22.57;100.00
59103;BME280;43999;51.660;5.616;2023-06-22T11:31:25;101459.34;;;22.47;100.00
59103;BME280;43999;51.660;5.616;2023-06-22T11:33:53;101462.88;;;22.28;100.00
59103;BME280;43999;51.660;5.616;2023-06-22T11:36:20;101458.41;;;22.09;100.00
59103;BME280;43999;51.660;5.616;2023-06-22T11:38:48;101463.63;;;21.91;100.00
59103;BME280;43999;51.660;5.616;2023-06-22T11:41:15;101471.78;;;21.70;100.00
59103;BME280;43999;51.660;5.616;2023-06-22T11:43:43;101473.41;;;21.41;100.00
59103;BME280;43999;51.660;5.616;2023-06-22T11:46:11;101466.47;;;21.09;100.00
59103;BME280;43999;51.660;5.616;2023-06-22T11:48:38;101457.25;;;20.73;100.00
59103;BME280;43999;51.660;5.616;2023-06-22T11:51:06;101461.16;;;20.48;100.00
59103;BME280;43999;51.660;5.616;2023-06-22T11:53:35;101463.25;;;20.23;100.00
59103;BME280;43999;51.660;5.616;2023-06-22T11:56:02;101462.41;;;20.01;100.00
59103;BME280;43999;51.660;5.616;2023-06-22T11:58:30;101470.69;;;19.87;100.00
59103;BME280;43999;51.660;5.616;2023-06-22T12:00:57;101458.53;;;19.73;100.00
59103;BME280;43999;51.660;5.616;2023-06-22T12:03:24;101453.97;;;19.64;100.00
59103;BME280;43999;51.660;5.616;2023-06-22T12:05:52;101445.09;;;19.53;100.00
59103;BME280;43999;51.660;5.616;2023-06-22T12:08:20;101437.88;;;19.44;100.00
59103;BME280;43999;51.660;5.616;2023-06-22T12:10:52;101423.97;;;19.41;100.00
59103;BME280;43999;51.660;5.616;2023-06-22T12:13:21;101412.75;;;19.37;100.00
59103;BME280;43999;51.660;5.616;2023-06-22T12:15:48;101393.56;;;19.33;100.00
59103;BME280;43999;51.660;5.616;2023-06-22T12:18:15;101398.53;;;19.27;100.00
59103;BME280;43999;51.660;5.616;2023-06-22T12:20:43;101395.78;;;19.17;100.00
59103;BME280;43999;51.660;5.616;2023-06-22T12:23:11;101388.94;;;19.03;100.00
59103;BME280;43999;51.660;5.616;2023-06-22T12:25:39;101386.41;;;19.02;100.00
59103;BME280;43999;51.660;5.616;2023-06-22T12:28:06;101381.34;;;18.98;100.00
59103;BME280;43999;51.660;5.616;2023-06-22T12:30:33;101378.22;;;18.93;100.00
59103;BME280;43999;51.660;5.616;2023-06-22T12:33:01;101375.81;;;18.90;100.00
59103;BME280;43999;51.660;5.616;2023-06-22T12:35:28;101379.69;;;18.86;100.00
59103;BME280;43999;51.660;5.616;2023-06-22T12:37:55;101377.16;;;18.85;100.00
59103;BME280;43999;51.660;5.616;2023-06-22T12:40:23;101380.13;;;18.80;100.00
59103;BME280;43999;51.660;5.616;2023-06-22T12:42:51;101379.31;;;18.79;100.00
59103;BME280;43999;51.660;5.616;2023-06-22T12:45:18;101374.25;;;18.76;100.00
59103;BME280;43999;51.660;5.616;2023-06-22T12:47:48;101359.41;;;18.74;100.00
59103;BME280;43999;51.660;5.616;2023-06-22T12:50:17;101358.94;;;18.69;100.00
59103;BME280;43999;51.660;5.616;2023-06-22T12:52:44;101353.25;;;18.62;100.00
59103;BME280;43999;51.660;5.616;2023-06-22T12:55:11;101350.84;;;18.59;100.00
59103;BME280;43999;51.660;5.616;2023-06-22T12:57:39;101357.00;;;18.59;100.00